Time;durP1;ratioP1;P1;durP2;ratioP2;P2;SDS_P1;SDS_P2;PMS_P1;PMS_P2;Temp;Humidity;BMP_temperature;BMP_pressure;BME280_temperature;BME280_humidity;BME280_pressure;Samples;Min_cycle;Max_cycle;Signal;HPM_P1;HPM_P2
2022/03/30 00:00:07;;;;;;;27.33;5.15;;;;;;;;;;5033338;28;20084;-47
2022/03/30 00:02:34;;;;;;;26.75;4.85;;;;;;;;;;5033039;28;20037;-45
2022/03/30 00:05:01;;;;;;;31.70;5.10;;;;;;;;;;5032633;28;20045;-49
2022/03/30 00:07:31;;;;;;;33.58;4.95;;;;;;;;;;5033475;28;20446;-44
2022/03/30 00:09:59;;;;;;;31.10;4.43;;;;;;;;;;5033314;28;20541;-45
2022/03/30 00:12:26;;;;;;;36.50;4.90;;;;;;;;;;5032681;28;20502;-51
2022/03/30 00:14:53;;;;;;;31.33;5.45;;;;;;;;;;5033012;28;20102;-48
2022/03/30 00:17:21;;;;;;;33.40;5.03;;;;;;;;;;5033245;28;20036;-45
2022/03/30 00:19:48;;;;;;;22.88;4.00;;;;;;;;;;5015022;28;20029;-43
2022/03/30 00:22:15;;;;;;;30.20;5.55;;;;;;;;;;5032566;28;20116;-44
2022/03/30 00:24:45;;;;;;;29.80;4.85;;;;;;;;;;5032939;28;20435;-45
2022/03/30 00:27:12;;;;;;;24.05;4.63;;;;;;;;;;5032652;28;20029;-52
2022/03/30 00:29:40;;;;;;;38.30;4.95;;;;;;;;;;5032667;28;20544;-45
2022/03/30 00:32:07;;;;;;;25.48;4.57;;;;;;;;;;5032777;28;20033;-46
2022/03/30 00:34:34;;;;;;;33.70;5.53;;;;;;;;;;5030426;28;20053;-47
2022/03/30 00:37:01;;;;;;;27.63;4.82;;;;;;;;;;5031050;28;20022;-46
2022/03/30 00:39:28;;;;;;;38.83;6.00;;;;;;;;;;5031341;28;20706;-43
2022/03/30 00:41:55;;;;;;;23.88;4.32;;;;;;;;;;5030695;28;20037;-43
2022/03/30 00:44:22;;;;;;;24.05;4.78;;;;;;;;;;5032063;28;20502;-45
2022/03/30 00:46:49;;;;;;;30.95;5.25;;;;;;;;;;5031314;28;20121;-44
2022/03/30 00:49:16;;;;;;;27.63;5.35;;;;;;;;;;5030824;28;20116;-44
2022/03/30 00:51:43;;;;;;;30.42;4.78;;;;;;;;;;5027374;28;20041;-46
2022/03/30 00:54:11;;;;;;;24.88;3.95;;;;;;;;;;5030402;28;20029;-47
2022/03/30 00:56:40;;;;;;;30.02;5.13;;;;;;;;;;5029120;28;20029;-45
2022/03/30 00:59:07;;;;;;;22.20;4.55;;;;;;;;;;5029018;28;20091;-45
2022/03/30 01:01:35;;;;;;;30.65;5.38;;;;;;;;;;5030226;28;20451;-46
2022/03/30 01:04:07;;;;;;;24.70;4.97;;;;;;;;;;5012594;28;20037;-48
2022/03/30 01:06:34;;;;;;;31.08;4.32;;;;;;;;;;5028439;28;20033;-45
2022/03/30 01:09:01;;;;;;;37.20;4.75;;;;;;;;;;5032051;28;20033;-45
2022/03/30 01:11:28;;;;;;;28.75;4.93;;;;;;;;;;5031533;28;20104;-44
2022/03/30 01:13:55;;;;;;;36.78;4.82;;;;;;;;;;5031965;28;20034;-45
2022/03/30 01:16:23;;;;;;;26.48;4.72;;;;;;;;;;5032089;28;20025;-44
2022/03/30 01:18:51;;;;;;;30.55;4.80;;;;;;;;;;5031242;28;20033;-46
2022/03/30 01:21:18;;;;;;;23.45;4.32;;;;;;;;;;5031914;28;20175;-46
2022/03/30 01:23:45;;;;;;;26.20;4.10;;;;;;;;;;5031597;28;20033;-44
2022/03/30 01:26:12;;;;;;;21.42;4.68;;;;;;;;;;5031608;28;20028;-49
2022/03/30 01:28:39;;;;;;;30.23;5.95;;;;;;;;;;5030860;28;20115;-45
2022/03/30 01:33:51;;;;;;;46.75;11.05;;;;;;;;;;5031168;28;20407;-45
2022/03/30 01:36:19;;;;;;;60.35;18.98;;;;;;;;;;5031799;28;20037;-45
2022/03/30 01:38:45;;;;;;;65.88;22.70;;;;;;;;;;5031365;28;20030;-45
2022/03/30 01:41:13;;;;;;;60.53;23.02;;;;;;;;;;5030209;28;20044;-47
2022/03/30 01:43:40;;;;;;;63.75;21.63;;;;;;;;;;5031256;28;20101;-47
2022/03/30 01:46:07;;;;;;;61.38;21.25;;;;;;;;;;5031409;28;20029;-48
2022/03/30 01:48:34;;;;;;;49.35;20.10;;;;;;;;;;5031238;28;20033;-44
2022/03/30 01:51:01;;;;;;;48.97;18.75;;;;;;;;;;5031329;28;20033;-47
2022/03/30 01:53:28;;;;;;;50.15;18.00;;;;;;;;;;5031146;28;20025;-45
2022/03/30 01:55:55;;;;;;;46.58;15.52;;;;;;;;;;5031093;28;20630;-46
2022/03/30 01:58:22;;;;;;;52.20;16.58;;;;;;;;;;5031403;28;20471;-45
2022/03/30 02:00:49;;;;;;;41.70;14.95;;;;;;;;;;5030448;28;20487;-46
2022/03/30 02:03:16;;;;;;;44.58;14.75;;;;;;;;;;5030114;28;20033;-49
2022/03/30 02:05:43;;;;;;;40.40;14.10;;;;;;;;;;5030334;28;20024;-44
2022/03/30 02:08:10;;;;;;;47.90;14.00;;;;;;;;;;5029932;28;20629;-45
2022/03/30 02:10:38;;;;;;;42.03;13.48;;;;;;;;;;5028159;28;20057;-47
2022/03/30 02:13:05;;;;;;;41.33;12.70;;;;;;;;;;5030851;28;20109;-47
2022/03/30 02:15:33;;;;;;;38.05;12.45;;;;;;;;;;5031195;28;20025;-46
2022/03/30 02:18:00;;;;;;;41.47;12.48;;;;;;;;;;5031072;28;20036;-44
2022/03/30 02:20:26;;;;;;;40.30;12.70;;;;;;;;;;5013279;28;20396;-44
2022/03/30 02:22:53;;;;;;;41.15;12.55;;;;;;;;;;5030872;28;20073;-44
2022/03/30 02:25:20;;;;;;;35.78;10.80;;;;;;;;;;5030651;28;20036;-46
2022/03/30 02:27:47;;;;;;;40.15;11.15;;;;;;;;;;5026428;28;20034;-49
2022/03/30 02:30:14;;;;;;;35.00;10.60;;;;;;;;;;5028165;28;20029;-48
2022/03/30 02:32:44;;;;;;;32.42;11.13;;;;;;;;;;5030524;28;20032;-50
2022/03/30 02:35:13;;;;;;;37.10;10.68;;;;;;;;;;5031167;28;20144;-50
2022/03/30 02:37:40;;;;;;;35.10;9.75;;;;;;;;;;5029440;28;20109;-49
2022/03/30 02:40:08;;;;;;;29.05;9.55;;;;;;;;;;5011860;28;20074;-52
2022/03/30 02:42:34;;;;;;;25.90;8.52;;;;;;;;;;5011647;28;20046;-49
2022/03/30 02:45:02;;;;;;;32.75;9.18;;;;;;;;;;5011891;28;20033;-50
2022/03/30 02:50:14;;;;;;;27.20;8.20;;;;;;;;;;5029882;28;20113;-53
2022/03/30 02:52:41;;;;;;;27.42;7.28;;;;;;;;;;5030867;28;20550;-48
2022/03/30 02:55:08;;;;;;;25.35;7.85;;;;;;;;;;5031019;28;20491;-47
2022/03/30 02:57:35;;;;;;;22.92;7.63;;;;;;;;;;5030996;28;20029;-53
2022/03/30 03:00:04;;;;;;;18.88;7.03;;;;;;;;;;5030692;28;20084;-49
2022/03/30 03:02:31;;;;;;;21.30;6.90;;;;;;;;;;5030670;28;20045;-54
2022/03/30 03:04:58;;;;;;;19.75;7.10;;;;;;;;;;5038808;28;20053;-50
2022/03/30 03:07:25;;;;;;;20.00;6.30;;;;;;;;;;5040176;28;20052;-51
2022/03/30 03:09:52;;;;;;;17.98;6.40;;;;;;;;;;5040463;28;20033;-52
2022/03/30 03:12:19;;;;;;;19.00;6.00;;;;;;;;;;5041421;28;20099;-53
2022/03/30 03:14:46;;;;;;;23.02;6.32;;;;;;;;;;5040176;28;20045;-49
2022/03/30 03:17:13;;;;;;;20.25;6.30;;;;;;;;;;5040261;28;20100;-53
2022/03/30 03:19:41;;;;;;;19.55;5.97;;;;;;;;;;5043608;28;20036;-53
2022/03/30 03:22:08;;;;;;;15.88;4.93;;;;;;;;;;5043715;28;20072;-53
2022/03/30 03:24:35;;;;;;;14.30;5.28;;;;;;;;;;5043404;28;20025;-55
2022/03/30 03:27:02;;;;;;;18.15;5.72;;;;;;;;;;5039291;28;20132;-52
2022/03/30 03:29:29;;;;;;;14.98;5.18;;;;;;;;;;5034491;28;20034;-52
2022/03/30 03:31:56;;;;;;;14.85;5.00;;;;;;;;;;5034034;28;20022;-48
2022/03/30 03:34:23;;;;;;;14.52;4.45;;;;;;;;;;5034408;28;20046;-49
2022/03/30 03:36:51;;;;;;;12.85;4.43;;;;;;;;;;5034125;28;20037;-53
2022/03/30 03:39:18;;;;;;;12.95;4.50;;;;;;;;;;5016461;28;20057;-52
2022/03/30 03:41:44;;;;;;;11.68;4.50;;;;;;;;;;5034232;28;20043;-51
2022/03/30 03:44:11;;;;;;;8.70;3.83;;;;;;;;;;5034587;28;20029;-53
2022/03/30 03:46:38;;;;;;;11.68;4.28;;;;;;;;;;5034593;28;20032;-52
2022/03/30 03:49:05;;;;;;;10.57;3.92;;;;;;;;;;5034359;28;20125;-50
2022/03/30 03:51:33;;;;;;;13.65;4.18;;;;;;;;;;5034253;28;20049;-52
2022/03/30 03:53:59;;;;;;;10.57;4.22;;;;;;;;;;5034247;28;20033;-53
2022/03/30 03:56:27;;;;;;;11.15;4.05;;;;;;;;;;5034194;28;20040;-52
2022/03/30 03:58:55;;;;;;;9.35;3.40;;;;;;;;;;5034171;28;20582;-53
2022/03/30 04:01:22;;;;;;;10.52;3.95;;;;;;;;;;5033911;28;20553;-50
2022/03/30 04:03:49;;;;;;;14.68;4.25;;;;;;;;;;5033863;28;20064;-54
2022/03/30 04:06:16;;;;;;;10.27;3.97;;;;;;;;;;5034114;28;20040;-53
2022/03/30 04:08:43;;;;;;;11.52;3.72;;;;;;;;;;5034109;28;20076;-52
2022/03/30 04:11:10;;;;;;;9.45;4.00;;;;;;;;;;5033908;28;20030;-65
2022/03/30 04:13:37;;;;;;;7.97;3.40;;;;;;;;;;5033976;28;20499;-49
2022/03/30 04:16:04;;;;;;;7.57;3.67;;;;;;;;;;5016162;28;20403;-50
2022/03/30 04:18:31;;;;;;;9.57;3.50;;;;;;;;;;5033928;28;20387;-51
2022/03/30 04:20:58;;;;;;;9.38;3.58;;;;;;;;;;5033705;28;20034;-54
2022/03/30 04:23:25;;;;;;;7.82;3.30;;;;;;;;;;5033742;28;20029;-51
2022/03/30 04:25:52;;;;;;;8.52;3.30;;;;;;;;;;5033686;28;20025;-53
2022/03/30 04:28:19;;;;;;;8.38;3.25;;;;;;;;;;5033812;28;20029;-52
2022/03/30 04:30:46;;;;;;;10.70;3.50;;;;;;;;;;5032630;28;20415;-52
2022/03/30 04:33:13;;;;;;;8.00;3.38;;;;;;;;;;5033574;28;20018;-52
2022/03/30 04:35:40;;;;;;;9.85;3.08;;;;;;;;;;5033665;28;20024;-51
2022/03/30 04:38:07;;;;;;;8.45;2.95;;;;;;;;;;5033413;28;20029;-50
2022/03/30 04:40:34;;;;;;;5.63;2.78;;;;;;;;;;5033371;28;20104;-52
2022/03/30 04:43:01;;;;;;;6.57;2.75;;;;;;;;;;5033273;28;20037;-53
2022/03/30 04:45:28;;;;;;;8.98;3.35;;;;;;;;;;5033326;28;20040;-52
2022/03/30 04:47:55;;;;;;;7.00;2.58;;;;;;;;;;5033378;28;20056;-50
2022/03/30 04:50:23;;;;;;;6.50;2.42;;;;;;;;;;5033309;28;20029;-52
2022/03/30 04:52:51;;;;;;;4.93;2.55;;;;;;;;;;5033177;28;20084;-51
2022/03/30 04:55:19;;;;;;;5.90;2.92;;;;;;;;;;5033080;28;20033;-52
2022/03/30 04:57:46;;;;;;;7.00;2.92;;;;;;;;;;5033104;28;20037;-50
2022/03/30 05:00:14;;;;;;;6.60;2.55;;;;;;;;;;5033213;28;20091;-52
2022/03/30 05:02:41;;;;;;;5.53;2.40;;;;;;;;;;5032826;28;20509;-48
2022/03/30 05:05:09;;;;;;;6.57;2.38;;;;;;;;;;5032846;28;20069;-49
2022/03/30 05:07:36;;;;;;;5.68;2.30;;;;;;;;;;5032863;28;20025;-51
2022/03/30 05:10:05;;;;;;;5.53;2.10;;;;;;;;;;5032982;28;20022;-51
2022/03/30 05:12:33;;;;;;;6.10;2.20;;;;;;;;;;5032599;28;20041;-53
2022/03/30 05:15:00;;;;;;;5.30;2.70;;;;;;;;;;5032819;28;20144;-52
2022/03/30 05:17:27;;;;;;;5.40;2.22;;;;;;;;;;5032798;28;20549;-51
2022/03/30 05:19:54;;;;;;;4.45;2.03;;;;;;;;;;5032785;28;20053;-52
2022/03/30 05:22:21;;;;;;;3.50;1.92;;;;;;;;;;5032636;28;20040;-53
2022/03/30 05:24:48;;;;;;;6.25;2.38;;;;;;;;;;5032526;28;20026;-52
2022/03/30 05:27:15;;;;;;;4.10;2.00;;;;;;;;;;5032629;28;20022;-53
2022/03/30 05:29:42;;;;;;;4.10;2.08;;;;;;;;;;5032639;28;20026;-51
2022/03/30 05:32:09;;;;;;;5.95;1.88;;;;;;;;;;5032458;28;20036;-53
2022/03/30 05:34:36;;;;;;;3.10;1.80;;;;;;;;;;5032546;28;20029;-50
2022/03/30 05:37:03;;;;;;;3.97;1.88;;;;;;;;;;5032465;28;20029;-48
2022/03/30 05:39:35;;;;;;;5.38;1.85;;;;;;;;;;5032349;28;20545;-50
2022/03/30 05:42:02;;;;;;;;;;;;;;;;;;5032257;28;20041;-51
2022/03/30 05:44:28;;;;;;;3.30;1.58;;;;;;;;;;5032413;28;19905;-53
2022/03/30 05:46:55;;;;;;;3.38;1.60;;;;;;;;;;5032293;28;20072;-50
2022/03/30 05:49:23;;;;;;;4.93;1.90;;;;;;;;;;5032233;28;20427;-53
2022/03/30 05:51:50;;;;;;;4.07;1.73;;;;;;;;;;5032180;28;20037;-53
2022/03/30 05:54:18;;;;;;;3.40;1.50;;;;;;;;;;5032133;28;20026;-52
2022/03/30 05:57:03;;;;;;;3.25;1.48;;;;;;;;;;5014415;28;20403;-53
2022/03/30 05:59:31;;;;;;;3.85;1.70;;;;;;;;;;5032014;28;20582;-52
2022/03/30 06:01:59;;;;;;;3.10;1.75;;;;;;;;;;5031971;28;20038;-53
2022/03/30 06:04:26;;;;;;;4.20;1.48;;;;;;;;;;5031941;28;20045;-53
2022/03/30 06:06:53;;;;;;;3.15;1.70;;;;;;;;;;5032067;28;20531;-53
2022/03/30 06:09:20;;;;;;;3.88;1.60;;;;;;;;;;5032071;28;20057;-53
2022/03/30 06:11:47;;;;;;;2.45;1.35;;;;;;;;;;5031885;28;20148;-50
2022/03/30 06:14:14;;;;;;;3.22;1.35;;;;;;;;;;5032027;28;20021;-52
2022/03/30 06:16:42;;;;;;;4.45;1.48;;;;;;;;;;5032035;28;20021;-50
2022/03/30 06:19:11;;;;;;;3.22;1.17;;;;;;;;;;5031973;28;20022;-53
2022/03/30 06:21:38;;;;;;;2.70;1.13;;;;;;;;;;5031753;28;20033;-48
2022/03/30 06:24:05;;;;;;;2.28;1.30;;;;;;;;;;5031836;28;20026;-49
2022/03/30 06:26:32;;;;;;;1.67;1.08;;;;;;;;;;5031893;28;20104;-49
2022/03/30 06:28:59;;;;;;;5.05;1.55;;;;;;;;;;5031854;28;20487;-55
2022/03/30 06:31:26;;;;;;;2.60;1.27;;;;;;;;;;5031680;28;20084;-52
2022/03/30 06:33:53;;;;;;;5.10;1.42;;;;;;;;;;5031810;28;20376;-51
2022/03/30 06:36:21;;;;;;;2.85;1.30;;;;;;;;;;5031756;28;20049;-51
2022/03/30 06:38:48;;;;;;;2.22;1.20;;;;;;;;;;5031695;28;20038;-53
2022/03/30 06:41:17;;;;;;;4.63;1.35;;;;;;;;;;5031619;28;20052;-49
2022/03/30 06:43:46;;;;;;;3.90;1.58;;;;;;;;;;5031640;28;20030;-51
2022/03/30 06:46:17;;;;;;;2.15;1.17;;;;;;;;;;5031928;28;20534;-54
2022/03/30 06:48:47;;;;;;;2.72;1.23;;;;;;;;;;5031686;28;20491;-52
2022/03/30 06:51:15;;;;;;;4.28;1.20;;;;;;;;;;5031630;28;20026;-51
2022/03/30 06:53:42;;;;;;;3.60;0.95;;;;;;;;;;5032151;28;20034;-54
2022/03/30 06:56:10;;;;;;;2.10;1.00;;;;;;;;;;5035472;28;20056;-49
2022/03/30 06:58:37;;;;;;;3.55;0.85;;;;;;;;;;5035286;28;20025;-54
2022/03/30 07:01:04;;;;;;;3.72;1.35;;;;;;;;;;5035274;28;20025;-53
2022/03/30 07:03:31;;;;;;;2.42;1.08;;;;;;;;;;5041135;28;20120;-54
2022/03/30 07:11:12;;;;;;;2.40;1.10;;;;;;;;;;5015873;28;20077;-48
2022/03/30 07:13:39;;;;;;;1.90;1.02;;;;;;;;;;5015747;28;20037;-45
2022/03/30 07:16:06;;;;;;;2.25;1.15;;;;;;;;;;5015803;28;20101;-48
2022/03/30 07:18:33;;;;;;;2.05;1.02;;;;;;;;;;5015525;28;20022;-47
2022/03/30 07:21:00;;;;;;;2.50;0.95;;;;;;;;;;5015595;28;20053;-48
2022/03/30 07:23:27;;;;;;;1.42;0.82;;;;;;;;;;5015613;28;20022;-45
2022/03/30 07:25:54;;;;;;;2.45;0.90;;;;;;;;;;5015565;28;20026;-47
2022/03/30 07:28:21;;;;;;;2.47;0.90;;;;;;;;;;5015468;28;20030;-47
2022/03/30 07:30:52;;;;;;;1.55;0.80;;;;;;;;;;5015413;28;20479;-47
2022/03/30 07:33:19;;;;;;;3.93;1.00;;;;;;;;;;5015345;28;20510;-46
2022/03/30 07:35:46;;;;;;;1.52;1.00;;;;;;;;;;5015327;28;20037;-45
2022/03/30 07:38:17;;;;;;;1.63;0.80;;;;;;;;;;5015239;28;20214;-45
2022/03/30 07:40:48;;;;;;;2.35;1.17;;;;;;;;;;4997552;28;20391;-45
2022/03/30 07:43:15;;;;;;;1.67;0.73;;;;;;;;;;5015137;28;20042;-47
2022/03/30 07:45:42;;;;;;;1.13;0.60;;;;;;;;;;5015129;28;20073;-44
2022/03/30 07:48:10;;;;;;;2.10;0.98;;;;;;;;;;5015033;28;20041;-46
2022/03/30 07:50:37;;;;;;;2.55;0.90;;;;;;;;;;5015057;28;20120;-44
2022/03/30 07:53:07;;;;;;;1.75;0.88;;;;;;;;;;5015016;28;20044;-46
2022/03/30 07:55:35;;;;;;;0.82;0.60;;;;;;;;;;5014801;28;20427;-45
2022/03/30 07:58:02;;;;;;;1.92;0.88;;;;;;;;;;5014862;28;20505;-46
2022/03/30 08:00:29;;;;;;;1.38;0.80;;;;;;;;;;5014885;28;20479;-46
2022/03/30 08:02:58;;;;;;;1.58;0.80;;;;;;;;;;5014784;28;20045;-45
2022/03/30 08:05:25;;;;;;;1.35;0.77;;;;;;;;;;5014416;28;20045;-47
2022/03/30 08:07:52;;;;;;;2.22;0.90;;;;;;;;;;5014355;28;20077;-45
2022/03/30 08:10:19;;;;;;;0.98;0.57;;;;;;;;;;4996981;28;20109;-44
2022/03/30 08:12:47;;;;;;;1.48;0.60;;;;;;;;;;5014604;28;20113;-45
2022/03/30 08:15:14;;;;;;;1.25;0.70;;;;;;;;;;5014256;28;20076;-49
2022/03/30 08:17:41;;;;;;;1.88;0.70;;;;;;;;;;5014406;28;20507;-47
2022/03/30 08:20:09;;;;;;;2.22;0.88;;;;;;;;;;5014452;28;20053;-47
2022/03/30 08:22:36;;;;;;;2.30;0.90;;;;;;;;;;5014350;28;20065;-45
2022/03/30 08:25:10;;;;;;;1.52;0.70;;;;;;;;;;5014455;28;20033;-46
2022/03/30 08:27:37;;;;;;;1.60;0.85;;;;;;;;;;5014035;28;20113;-47
2022/03/30 08:30:05;;;;;;;1.45;0.70;;;;;;;;;;5014266;28;20097;-46
2022/03/30 08:32:33;;;;;;;1.40;0.52;;;;;;;;;;5014171;28;20124;-45
2022/03/30 08:35:03;;;;;;;0.93;0.60;;;;;;;;;;5014233;28;20026;-48
2022/03/30 08:37:30;;;;;;;2.35;0.80;;;;;;;;;;5013868;28;20034;-45
2022/03/30 08:39:57;;;;;;;0.95;0.60;;;;;;;;;;5014099;28;20557;-45
2022/03/30 08:42:24;;;;;;;2.58;0.60;;;;;;;;;;5014106;28;20081;-47
2022/03/30 08:44:51;;;;;;;1.70;0.70;;;;;;;;;;5013927;28;20597;-46
2022/03/30 08:47:18;;;;;;;1.40;0.55;;;;;;;;;;5013966;28;20030;-47
2022/03/30 08:49:50;;;;;;;2.35;0.60;;;;;;;;;;4996231;28;20022;-45
2022/03/30 08:52:17;;;;;;;2.05;0.65;;;;;;;;;;5013899;28;20046;-44
2022/03/30 08:54:45;;;;;;;2.00;0.50;;;;;;;;;;5013762;28;20037;-45
2022/03/30 08:57:13;;;;;;;0.70;0.50;;;;;;;;;;4996106;28;20244;-46
2022/03/30 08:59:40;;;;;;;2.28;0.50;;;;;;;;;;5013851;28;20034;-45
2022/03/30 09:02:09;;;;;;;0.80;0.50;;;;;;;;;;5013712;28;20038;-45
2022/03/30 09:04:38;;;;;;;0.80;0.43;;;;;;;;;;5013548;28;20394;-47
2022/03/30 09:07:05;;;;;;;0.77;0.40;;;;;;;;;;5001845;28;20151;-46
2022/03/30 09:09:33;;;;;;;1.40;0.57;;;;;;;;;;5033415;28;20096;-47
2022/03/30 09:12:00;;;;;;;1.60;0.50;;;;;;;;;;5033390;28;20044;-46
2022/03/30 09:14:29;;;;;;;1.77;0.57;;;;;;;;;;5033276;28;20056;-45
2022/03/30 09:16:58;;;;;;;0.68;0.50;;;;;;;;;;5032568;28;20038;-45
2022/03/30 09:19:25;;;;;;;1.80;0.60;;;;;;;;;;5033186;28;20053;-47
2022/03/30 09:21:54;;;;;;;2.15;0.73;;;;;;;;;;5033033;28;20045;-47
2022/03/30 09:24:24;;;;;;;0.95;0.47;;;;;;;;;;5032972;28;20033;-46
2022/03/30 09:26:52;;;;;;;0.55;0.30;;;;;;;;;;5033014;28;20080;-45
2022/03/30 09:29:20;;;;;;;1.00;0.40;;;;;;;;;;5032709;28;20026;-44
2022/03/30 09:31:49;;;;;;;0.75;0.50;;;;;;;;;;5032783;28;20029;-45
2022/03/30 09:34:16;;;;;;;1.75;0.40;;;;;;;;;;5032804;28;20029;-46
2022/03/30 09:36:43;;;;;;;1.70;0.38;;;;;;;;;;5032503;28;20034;-45
2022/03/30 09:39:27;;;;;;;4.55;0.60;;;;;;;;;;5032754;28;20499;-47
2022/03/30 09:41:54;;;;;;;0.80;0.40;;;;;;;;;;5032719;28;20033;-48
2022/03/30 09:44:22;;;;;;;1.80;0.50;;;;;;;;;;5032649;28;20029;-46
2022/03/30 09:47:03;;;;;;;0.75;0.50;;;;;;;;;;5032409;28;20079;-46
2022/03/30 09:49:33;;;;;;;1.77;0.50;;;;;;;;;;5032584;28;20027;-47
2022/03/30 09:52:00;;;;;;;1.60;0.65;;;;;;;;;;5032463;28;20029;-47
2022/03/30 09:54:50;;;;;;;3.25;1.00;;;;;;;;;;5032552;28;20032;-48
2022/03/30 09:57:22;;;;;;;3.97;0.77;;;;;;;;;;5031706;28;20030;-45
2022/03/30 10:00:04;;;;;;;2.45;0.70;;;;;;;;;;5031638;28;20449;-46
2022/03/30 10:02:31;;;;;;;3.30;0.60;;;;;;;;;;5032723;28;20034;-46
2022/03/30 10:04:59;;;;;;;2.75;0.60;;;;;;;;;;5032453;28;20472;-46
2022/03/30 10:07:27;;;;;;;1.38;0.80;;;;;;;;;;5032020;28;20152;-50
2022/03/30 10:09:56;;;;;;;3.63;0.85;;;;;;;;;;5032356;28;20021;-45
2022/03/30 10:12:24;;;;;;;2.67;0.70;;;;;;;;;;5032134;28;20036;-44
2022/03/30 10:14:51;;;;;;;2.40;0.88;;;;;;;;;;5032414;28;20446;-45
2022/03/30 10:17:18;;;;;;;1.60;0.75;;;;;;;;;;5032275;28;20056;-47
2022/03/30 10:19:46;;;;;;;2.10;0.65;;;;;;;;;;5032355;28;20029;-45
2022/03/30 10:22:28;;;;;;;4.97;1.25;;;;;;;;;;5032146;28;20034;-48
2022/03/30 10:25:01;;;;;;;2.65;0.80;;;;;;;;;;5032311;28;20033;-47
2022/03/30 10:27:37;;;;;;;3.17;0.90;;;;;;;;;;5032028;28;20394;-46
2022/03/30 10:30:06;;;;;;;6.22;1.00;;;;;;;;;;5035059;28;20576;-45
2022/03/30 10:32:35;;;;;;;3.88;0.80;;;;;;;;;;5036248;28;20021;-46
2022/03/30 10:35:08;;;;;;;6.43;1.00;;;;;;;;;;5036277;28;20029;-46
2022/03/30 10:37:45;;;;;;;2.75;0.90;;;;;;;;;;5036139;28;20053;-44
2022/03/30 10:40:19;;;;;;;3.35;0.90;;;;;;;;;;5036206;28;20040;-46
2022/03/30 10:42:49;;;;;;;2.97;1.02;;;;;;;;;;5036008;28;20394;-46
2022/03/30 10:45:35;;;;;;;2.70;0.95;;;;;;;;;;5018287;28;20490;-47
2022/03/30 10:48:13;;;;;;;2.70;0.90;;;;;;;;;;5035957;28;20029;-44
2022/03/30 10:50:41;;;;;;;4.68;1.27;;;;;;;;;;5034362;28;20030;-48
2022/03/30 10:53:27;;;;;;;4.00;1.13;;;;;;;;;;5016994;28;20066;-47
2022/03/30 10:55:53;;;;;;;8.32;1.08;;;;;;;;;;4997236;28;20042;-46
2022/03/30 10:58:21;;;;;;;5.57;1.05;;;;;;;;;;5003409;28;20524;-47
2022/03/30 11:00:48;;;;;;;3.50;0.95;;;;;;;;;;5006074;28;20445;-47
2022/03/30 11:03:21;;;;;;;5.97;1.30;;;;;;;;;;5017846;28;20041;-47
2022/03/30 11:05:59;;;;;;;3.17;1.17;;;;;;;;;;5015605;28;20052;-51
2022/03/30 11:08:36;;;;;;;2.42;1.10;;;;;;;;;;5024225;28;20172;-47
2022/03/30 11:11:04;;;;;;;5.28;1.20;;;;;;;;;;5001797;28;20030;-47
2022/03/30 11:13:31;;;;;;;3.85;1.52;;;;;;;;;;5000797;28;20114;-50
2022/03/30 11:16:04;;;;;;;6.68;1.30;;;;;;;;;;4986240;28;20030;-47
2022/03/30 11:18:31;;;;;;;5.05;1.20;;;;;;;;;;5004166;28;20046;-47
2022/03/30 11:21:19;;;;;;;3.22;0.90;;;;;;;;;;4977008;28;20035;-45
2022/03/30 11:24:04;;;;;;;4.97;1.10;;;;;;;;;;5014733;28;20125;-46
2022/03/30 11:27:07;;;;;;;7.05;1.15;;;;;;;;;;5000881;28;20080;-46
2022/03/30 11:29:43;;;;;;;4.18;0.93;;;;;;;;;;4896994;29;20036;-46
2022/03/30 11:32:25;;;;;;;3.47;1.08;;;;;;;;;;4982025;28;20054;-45
2022/03/30 11:34:56;;;;;;;1.83;0.90;;;;;;;;;;4995049;28;20573;-49
2022/03/30 11:37:31;;;;;;;2.53;1.10;;;;;;;;;;4995059;28;20388;-46
2022/03/30 11:40:17;;;;;;;4.82;1.30;;;;;;;;;;4994511;28;20480;-47
2022/03/30 11:42:45;;;;;;;3.45;0.98;;;;;;;;;;4976742;28;20097;-45
2022/03/30 11:45:19;;;;;;;3.45;1.23;;;;;;;;;;4994816;28;20053;-50
2022/03/30 11:47:59;;;;;;;2.75;1.08;;;;;;;;;;4994922;28;20060;-48
2022/03/30 11:50:29;;;;;;;3.28;0.80;;;;;;;;;;4961530;28;20038;-47
2022/03/30 11:53:00;;;;;;;4.30;1.25;;;;;;;;;;4976484;28;20435;-46
2022/03/30 11:55:29;;;;;;;9.85;1.10;;;;;;;;;;4995156;28;20134;-45
2022/03/30 11:57:58;;;;;;;10.48;1.40;;;;;;;;;;4995160;28;20465;-45
2022/03/30 12:00:26;;;;;;;5.07;1.27;;;;;;;;;;4995033;28;20029;-44
2022/03/30 12:02:55;;;;;;;3.65;1.20;;;;;;;;;;4994928;28;20065;-45
2022/03/30 12:05:22;;;;;;;4.43;1.20;;;;;;;;;;4995063;28;20034;-45
2022/03/30 12:07:57;;;;;;;6.20;1.10;;;;;;;;;;5002420;28;20073;-46
2022/03/30 12:10:31;;;;;;;3.13;0.90;;;;;;;;;;5014497;28;20029;-45
2022/03/30 12:12:59;;;;;;;2.70;1.00;;;;;;;;;;5014554;28;20034;-46
2022/03/30 12:15:26;;;;;;;2.00;0.95;;;;;;;;;;5014431;28;20018;-45
2022/03/30 12:17:54;;;;;;;2.58;0.90;;;;;;;;;;5014361;28;20029;-45
2022/03/30 12:20:23;;;;;;;4.88;1.30;;;;;;;;;;5014318;28;20089;-47
2022/03/30 12:23:10;;;;;;;5.63;1.10;;;;;;;;;;5014199;28;20030;-47
2022/03/30 12:25:39;;;;;;;5.63;1.10;;;;;;;;;;4996645;28;20053;-45
2022/03/30 12:28:07;;;;;;;4.20;1.00;;;;;;;;;;5014035;28;20026;-46
2022/03/30 12:30:35;;;;;;;3.13;0.90;;;;;;;;;;5013972;28;20384;-46
2022/03/30 12:33:02;;;;;;;3.42;0.75;;;;;;;;;;5014079;28;20038;-45
2022/03/30 12:35:38;;;;;;;3.38;0.82;;;;;;;;;;5014051;28;20058;-45
2022/03/30 12:38:07;;;;;;;6.13;1.05;;;;;;;;;;5013785;28;20121;-45
2022/03/30 12:40:35;;;;;;;3.85;0.90;;;;;;;;;;5013889;28;20022;-45
2022/03/30 12:43:03;;;;;;;3.10;1.20;;;;;;;;;;5013855;28;20038;-47
2022/03/30 12:45:30;;;;;;;6.43;0.80;;;;;;;;;;5014073;28;20112;-47
2022/03/30 12:47:59;;;;;;;3.08;0.90;;;;;;;;;;5013651;28;20030;-47
2022/03/30 12:50:32;;;;;;;3.17;1.02;;;;;;;;;;5013810;28;20133;-45
2022/03/30 12:53:15;;;;;;;5.65;1.30;;;;;;;;;;5012709;28;20543;-46
2022/03/30 12:55:47;;;;;;;3.42;1.10;;;;;;;;;;5013562;28;20081;-46
2022/03/30 12:58:16;;;;;;;5.35;0.98;;;;;;;;;;5013722;28;20025;-49
2022/03/30 13:00:53;;;;;;;3.15;0.90;;;;;;;;;;5013701;28;20476;-47
2022/03/30 13:03:24;;;;;;;6.20;1.20;;;;;;;;;;5013505;28;20365;-47
2022/03/30 13:06:07;;;;;;;6.10;1.00;;;;;;;;;;5013223;28;20034;-50
2022/03/30 13:08:34;;;;;;;6.57;1.25;;;;;;;;;;5012985;28;20137;-47
2022/03/30 13:11:06;;;;;;;2.47;1.10;;;;;;;;;;5013391;28;20104;-48
2022/03/30 13:13:37;;;;;;;4.00;1.00;;;;;;;;;;5013271;28;20042;-47
2022/03/30 13:16:12;;;;;;;2.73;1.07;;;;;;;;;;5013367;28;20022;-47
2022/03/30 13:18:39;;;;;;;6.07;1.10;;;;;;;;;;5013200;28;20037;-49
2022/03/30 13:21:11;;;;;;;5.43;1.25;;;;;;;;;;5013223;28;20057;-48
2022/03/30 13:23:37;;;;;;;4.72;0.90;;;;;;;;;;5013190;28;20022;-48
2022/03/30 13:26:06;;;;;;;8.85;0.90;;;;;;;;;;5012920;28;20036;-47
2022/03/30 13:28:35;;;;;;;8.48;1.15;;;;;;;;;;5012959;28;20065;-45
2022/03/30 13:31:03;;;;;;;5.72;0.93;;;;;;;;;;5012935;28;20114;-48
2022/03/30 13:33:30;;;;;;;5.93;0.70;;;;;;;;;;5012881;28;20037;-46
2022/03/30 13:35:57;;;;;;;5.35;1.10;;;;;;;;;;5012937;28;20088;-48
2022/03/30 13:38:24;;;;;;;5.75;1.17;;;;;;;;;;5012863;28;20463;-46
2022/03/30 13:40:52;;;;;;;4.43;0.90;;;;;;;;;;5012833;28;20033;-46
2022/03/30 13:43:19;;;;;;;7.68;1.10;;;;;;;;;;5011926;28;20038;-47
2022/03/30 13:45:46;;;;;;;4.80;1.17;;;;;;;;;;5012605;28;20121;-45
2022/03/30 13:48:13;;;;;;;4.80;1.00;;;;;;;;;;5011781;28;20388;-47
2022/03/30 13:50:40;;;;;;;1.75;0.90;;;;;;;;;;5011887;28;20033;-46
2022/03/30 13:53:07;;;;;;;3.85;0.95;;;;;;;;;;5012812;28;20046;-45
2022/03/30 13:55:35;;;;;;;4.00;1.02;;;;;;;;;;5012678;28;20395;-46
2022/03/30 13:58:04;;;;;;;5.65;1.40;;;;;;;;;;5012253;28;20037;-45
2022/03/30 14:00:31;;;;;;;5.65;1.83;;;;;;;;;;5012381;28;20041;-45
2022/03/30 14:02:59;;;;;;;12.05;2.00;;;;;;;;;;5012274;28;20041;-45
2022/03/30 14:05:27;;;;;;;8.88;2.35;;;;;;;;;;5012614;28;20022;-45
2022/03/30 14:07:54;;;;;;;7.78;1.92;;;;;;;;;;5018163;28;20460;-45
2022/03/30 14:10:22;;;;;;;7.85;2.03;;;;;;;;;;5032166;28;20037;-47
2022/03/30 14:12:49;;;;;;;5.55;1.90;;;;;;;;;;5031572;28;20021;-45
2022/03/30 14:15:17;;;;;;;9.23;2.13;;;;;;;;;;5032281;28;20029;-50
2022/03/30 14:17:44;;;;;;;10.45;1.92;;;;;;;;;;5031956;28;20037;-45
2022/03/30 14:20:12;;;;;;;8.90;1.90;;;;;;;;;;5024625;28;20431;-47
2022/03/30 14:22:41;;;;;;;7.82;1.73;;;;;;;;;;5012007;28;20045;-47
2022/03/30 14:25:08;;;;;;;8.93;2.30;;;;;;;;;;5011646;28;20084;-45
2022/03/30 14:27:35;;;;;;;14.73;2.25;;;;;;;;;;5011650;28;20029;-48
2022/03/30 14:30:07;;;;;;;11.35;2.20;;;;;;;;;;5010828;28;20068;-47
2022/03/30 14:32:34;;;;;;;9.70;2.17;;;;;;;;;;5009286;28;20096;-49
2022/03/30 14:35:02;;;;;;;17.92;2.60;;;;;;;;;;5011039;28;20033;-47
2022/03/30 14:37:30;;;;;;;13.43;2.58;;;;;;;;;;5018940;28;20108;-48
2022/03/30 14:39:57;;;;;;;11.75;2.42;;;;;;;;;;5030319;28;20029;-45
2022/03/30 14:42:24;;;;;;;9.00;2.00;;;;;;;;;;5030555;28;20037;-47
2022/03/30 14:44:52;;;;;;;10.40;1.92;;;;;;;;;;5030561;28;20045;-46
2022/03/30 14:47:19;;;;;;;16.80;2.35;;;;;;;;;;5030998;28;20037;-47
2022/03/30 14:49:46;;;;;;;20.25;2.40;;;;;;;;;;5021388;28;20033;-47
2022/03/30 14:52:16;;;;;;;27.02;2.75;;;;;;;;;;5023525;28;20059;-44
2022/03/30 14:54:44;;;;;;;14.13;2.25;;;;;;;;;;5031005;28;20105;-46
2022/03/30 14:57:11;;;;;;;21.92;2.70;;;;;;;;;;5030650;28;20040;-46